Farmer, Ohio
Current Conditions -  °F | °C
As of 2:53 PM on Friday 24 Oct 2014 (Local Time) from KDFI Reporting Station
Overcast Overcast  
Wind Chill: 57°   Ceiling: 2900
Heat Index: 57°   Visibility: 9mi
Dew Point: 47°   Wind: 7mph
Humidity: 69%   Direction: 230°SW
Pressure: 30.04"   Gusts: NA
Location:  41.38°N, 84.63°W
Report Text: KDFI 241853Z AUTO 23006KT 9SM OVC029 14/08 A3004 RMK AO2 SLP174 T01390083
Loading
Personal Weather Stations






























Interactive Weather Map
Tropical Storm Tracking
New forecast layout! Learn more

10-Day Weather Forecast

Advertisements
Track Severe Weather on mobile